ADDS METAR Data INFO
IDs: Format: Raw Decoded Include TAF

Data at: 0732 UTC 18 Oct 2017

KDPA 180652Z 18004KT 10SM CLR 09/06 A3014 RMK AO2 SLP206 T00890056
KDPA 180552Z AUTO 20007KT 10SM CLR 11/06 A3014 RMK AO2 SLP206 T01060056 10156 20100 402060050 56003
KDPA 180452Z 20010KT 10SM CLR 12/06 A3014 RMK AO2 SLP206 T01170056
KDPA 180352Z 19009KT 10SM CLR 11/06 A3015 RMK AO2 SLP209 T01060061
KDPA 180252Z 19006KT 10SM CLR 11/06 A3015 RMK AO2 SLP211 T01060056 53012
KDPA 180152Z 18005KT 10SM CLR 12/06 A3013 RMK AO2 SLP206 T01170056
KDPA 180052Z 19007KT 10SM CLR 14/06 A3013 RMK AO2 SLP203 T01440056
KDPA 172352Z 19008KT 10SM CLR 13/07 A3012 RMK AO2 SLP199 T01330067 10206 20133 55002
KDPA 172252Z 21008KT 10SM CLR 17/06 A3011 RMK AO2 SLP198 T01720056
KDPA 172152Z 21013G21KT 10SM CLR 19/05 A3012 RMK AO2 SLP199 T01940050
KDPA 172052Z 20013G21KT 10SM CLR 20/06 A3012 RMK AO2 SLP201 T02000056 56014
KDPA 171952Z 22017G25KT 10SM CLR 21/06 A3013 RMK AO2 SLP203 T02060056
KDPA 171852Z 23015G21KT 10SM CLR 21/06 A3015 RMK AO2 PK WND 20027/1812 SLP210 T02060061
KDPA 171752Z 22017G25KT 10SM CLR 20/07 A3016 RMK AO2 SLP214 60000 T02000067 10200 20083 58009
KDPA 171652Z 22015G25KT 10SM CLR 18/07 A3018 RMK AO2 PK WND 22026/1637 RAB06E23 SLP222 P0000 T01830072
KDPA 171552Z 23013G21KT 10SM CLR 17/07 A3019 RMK AO2 RAB44E49 SLP224 P0000 T01670072
KDPA 171452Z 22015KT 10SM CLR 14/07 A3019 RMK AO2 SLP226 T01390067 50001
KDPA 171352Z 22016KT 10SM CLR 11/06 A3020 RMK AO2 SLP228 T01110061
KDPA 171252Z 20010KT 10SM CLR 08/05 A3019 RMK AO2 SLP227 T00830050
KDPA 171152Z 21010KT 10SM CLR 08/04 A3019 RMK AO2 SLP225 T00830044 10089 20050 58002
KDPA 171052Z 20010KT 10SM CLR 08/04 A3020 RMK AO2 SLP227 T00830039
KDPA 170952Z 21008KT 10SM CLR 08/04 A3019 RMK AO2 SLP225 T00830044
KDPA 170852Z 19005KT 10SM CLR 06/04 A3019 RMK AO2 SLP226 T00560039 55001
KDPA 170752Z 20007KT 10SM CLR 08/04 A3019 RMK AO2 SLP225 T00830039
KDPA 170652Z 20005KT 10SM CLR 06/03 A3020 RMK AO2 SLP226 T00560033
KDPA 170552Z 21007KT 10SM CLR 08/04 A3020 RMK AO2 SLP227 T00830039 10106 20061 401670028 58003
KDPA 170452Z 21006KT 10SM CLR 08/04 A3020 RMK AO2 SLP227 T00830039
KDPA 170352Z 19003KT 10SM CLR 09/04 A3020 RMK AO2 SLP230 T00890039
KDPA 170252Z 18005KT 10SM CLR 08/04 A3020 RMK AO2 SLP232 T00780044 56003
KDPA 170152Z 18004KT 10SM CLR 08/04 A3021 RMK AO2 SLP232 T00830044
KDPA 170052Z 22005KT 10SM CLR 10/04 A3021 RMK AO2 SLP234 T01000039
KDPA 162352Z 22004KT 10SM CLR 11/04 A3022 RMK AO2 SLP236 T01060039 10167 20106 55004
KDPA 162252Z 23005KT 10SM CLR 14/03 A3021 RMK AO2 SLP233 T01390033
KDPA 162152Z 23013G18KT 10SM CLR 16/03 A3021 RMK AO2 SLP234 T01610028
KDPA 162052Z 28012KT 10SM CLR 17/02 A3023 RMK AO2 SLP237 T01670022 56019
KDPA 161952Z 26016G24KT 10SM CLR 17/03 A3024 RMK AO2 SLP240 T01670028